Time;durP1;ratioP1;P1;durP2;ratioP2;P2;SDS_P1;SDS_P2;PMS_P1;PMS_P2;Temp;Humidity;BMP_temperature;BMP_pressure;BME280_temperature;BME280_humidity;BME280_pressure;Samples;Min_cycle;Max_cycle;Signal;HPM_P1;HPM_P2
2021/11/17 02:27:11;;;;;;;33.95;15.55;;;5.30;99.90;;;;;;4997808;28;20132;-69
2021/11/17 02:29:46;;;;;;;37.67;15.88;;;5.30;99.90;;;;;;4993621;28;20131;-69
2021/11/17 02:32:21;;;;;;;31.38;14.00;;;5.30;99.90;;;;;;5007063;28;20362;-69
2021/11/17 02:34:59;;;;;;;39.38;16.17;;;5.30;99.90;;;;;;5006586;28;20461;-70
2021/11/17 02:37:57;;;;;;;32.85;14.68;;;5.40;99.90;;;;;;5006997;28;20082;-74
2021/11/17 02:40:57;;;;;;;38.20;15.18;;;5.40;99.90;;;;;;5000045;28;20046;-69
2021/11/17 02:43:51;;;;;;;37.00;15.88;;;5.40;99.90;;;;;;5008498;28;20381;-74
2021/11/17 02:46:41;;;;;;;34.20;15.07;;;5.40;99.90;;;;;;5010405;28;20075;-68
2021/11/17 02:49:12;;;;;;;33.10;15.00;;;5.40;99.90;;;;;;5007866;28;20030;-69
2021/11/17 02:51:47;;;;;;;39.20;16.55;;;5.40;99.90;;;;;;5008796;28;20505;-69
2021/11/17 02:54:39;;;;;;;37.47;14.95;;;5.40;99.90;;;;;;4995332;28;20030;-68
2021/11/17 02:57:18;;;;;;;35.40;15.23;;;5.40;99.90;;;;;;5052937;28;20131;-69
2021/11/17 03:00:20;;;;;;;36.67;15.82;;;5.40;99.90;;;;;;5044738;28;20072;-69
2021/11/17 03:02:57;;;;;;;31.05;14.65;;;5.40;99.90;;;;;;5031613;28;20027;-72
2021/11/17 03:05:56;;;;;;;40.55;15.80;;;5.40;99.90;;;;;;5006424;28;20030;-68
2021/11/17 03:08:46;;;;;;;35.30;15.45;;;5.40;99.90;;;;;;5013734;28;20131;-71
2021/11/17 03:11:37;;;;;;;37.80;16.33;;;5.40;99.90;;;;;;4989375;28;20023;-70
2021/11/17 03:14:12;;;;;;;38.28;16.60;;;5.40;99.90;;;;;;4990145;28;20398;-71
2021/11/17 03:17:25;;;;;;;36.95;16.08;;;5.40;99.90;;;;;;4999332;28;20058;-69
2021/11/17 03:20:27;;;;;;;36.83;15.52;;;5.40;99.90;;;;;;5007813;28;20026;-73
2021/11/17 03:23:24;;;;;;;35.10;15.52;;;5.30;99.90;;;;;;4988253;28;20027;-70
2021/11/17 03:26:27;;;;;;;37.08;15.50;;;5.30;99.90;;;;;;5007971;28;20022;-69
2021/11/17 03:29:10;;;;;;;36.53;15.65;;;5.30;99.90;;;;;;5009059;28;20508;-70
2021/11/17 03:31:38;;;;;;;42.35;15.90;;;5.30;99.90;;;;;;5008294;28;20052;-69
2021/11/17 03:34:21;;;;;;;38.20;15.15;;;5.30;99.90;;;;;;5009052;28;20022;-69
2021/11/17 03:37:15;;;;;;;39.20;16.38;;;5.30;99.90;;;;;;5009302;28;20049;-70
2021/11/17 03:39:54;;;;;;;35.38;15.55;;;5.40;99.90;;;;;;4993373;28;20243;-69
2021/11/17 03:42:29;;;;;;;40.83;16.45;;;5.40;99.90;;;;;;4989093;28;20419;-71
2021/11/17 03:45:30;;;;;;;30.55;14.57;;;5.40;99.90;;;;;;4987565;28;20034;-74
2021/11/17 03:48:04;;;;;;;34.85;15.77;;;5.40;99.90;;;;;;5008838;28;20519;-71
2021/11/17 03:50:52;;;;;;;41.97;15.57;;;5.40;99.90;;;;;;5009044;28;20030;-71
2021/11/17 03:53:20;;;;;;;35.85;15.20;;;5.40;99.90;;;;;;5000516;28;20457;-70
2021/11/17 03:56:04;;;;;;;37.75;15.45;;;5.40;99.90;;;;;;4996598;28;20486;-71
2021/11/17 03:58:45;;;;;;;41.40;16.02;;;5.40;99.90;;;;;;5002092;28;20025;-71
2021/11/17 04:01:39;;;;;;;36.22;15.77;;;5.40;99.90;;;;;;5008931;28;20026;-70
2021/11/17 04:04:13;;;;;;;36.35;16.05;;;5.40;99.90;;;;;;5012761;28;20029;-70
2021/11/17 04:06:50;;;;;;;34.50;15.95;;;5.40;99.90;;;;;;4994412;28;20037;-70
2021/11/17 04:09:37;;;;;;;38.90;16.02;;;5.40;99.90;;;;;;4999974;28;20037;-71
2021/11/17 04:12:26;;;;;;;38.05;15.98;;;5.40;99.90;;;;;;5008609;28;20050;-70
2021/11/17 04:15:20;;;;;;;33.40;14.52;;;5.30;99.90;;;;;;5006942;28;20036;-70
2021/11/17 04:18:04;;;;;;;36.35;15.35;;;5.30;99.90;;;;;;5006644;28;20022;-71
2021/11/17 04:20:42;;;;;;;38.20;15.98;;;5.30;99.90;;;;;;5007205;28;20034;-71
2021/11/17 04:23:17;;;;;;;39.85;16.85;;;5.30;99.90;;;;;;4979307;28;20049;-70
2021/11/17 04:26:07;;;;;;;35.45;14.65;;;5.30;99.90;;;;;;5009727;28;20185;-70
2021/11/17 04:28:38;;;;;;;36.17;14.63;;;5.30;99.90;;;;;;5007641;28;20075;-71
2021/11/17 04:31:38;;;;;;;36.40;15.80;;;5.30;99.90;;;;;;5008449;28;20477;-72
2021/11/17 04:34:22;;;;;;;42.00;15.32;;;5.20;99.90;;;;;;4986403;28;20038;-71
2021/11/17 04:36:59;;;;;;;44.13;15.77;;;5.30;99.90;;;;;;4989031;28;20054;-72
2021/11/17 04:39:37;;;;;;;35.60;14.63;;;5.30;99.90;;;;;;5004733;28;20030;-72
2021/11/17 04:42:08;;;;;;;38.00;16.73;;;5.30;99.90;;;;;;5005312;28;20033;-73
2021/11/17 04:44:45;;;;;;;32.70;14.27;;;5.30;99.90;;;;;;5004456;28;20025;-71
2021/11/17 04:47:28;;;;;;;37.20;15.15;;;5.30;99.90;;;;;;5007888;28;20482;-71
2021/11/17 04:50:09;;;;;;;33.67;14.65;;;5.30;99.90;;;;;;4995656;28;20477;-71
2021/11/17 04:52:50;;;;;;;38.13;14.73;;;5.30;99.90;;;;;;5003256;28;20045;-72
2021/11/17 04:55:18;;;;;;;36.88;15.02;;;5.30;99.90;;;;;;5003042;28;20438;-71
2021/11/17 04:57:56;;;;;;;32.30;13.63;;;5.30;99.90;;;;;;5005049;28;20057;-71
2021/11/17 05:00:41;;;;;;;32.80;14.23;;;5.30;99.90;;;;;;5006574;28;20038;-71
2021/11/17 05:03:37;;;;;;;35.05;13.82;;;5.30;99.90;;;;;;4992724;28;20029;-71
2021/11/17 05:06:03;;;;;;;30.98;13.20;;;5.40;99.90;;;;;;5006109;28;20127;-72
2021/11/17 05:08:53;;;;;;;29.05;12.43;;;5.40;99.90;;;;;;5006226;28;20137;-71
2021/11/17 05:11:31;;;;;;;26.48;11.27;;;5.40;99.90;;;;;;5005836;28;20025;-71
2021/11/17 05:14:12;;;;;;;22.27;10.23;;;5.40;99.90;;;;;;5006938;28;20037;-71
2021/11/17 05:16:56;;;;;;;16.52;8.18;;;5.40;99.90;;;;;;5007176;28;20026;-72
2021/11/17 05:19:33;;;;;;;16.00;8.73;;;5.30;99.90;;;;;;5001117;28;20038;-71
2021/11/17 05:22:40;;;;;;;16.45;8.80;;;5.30;99.90;;;;;;5003274;28;20018;-71
2021/11/17 05:25:12;;;;;;;19.00;8.70;;;5.30;99.90;;;;;;4981692;28;20045;-72
2021/11/17 05:28:04;;;;;;;14.98;8.02;;;5.30;99.90;;;;;;5005414;28;20065;-71
2021/11/17 05:30:44;;;;;;;15.35;8.93;;;5.30;99.90;;;;;;5006317;28;20486;-73
2021/11/17 05:33:28;;;;;;;17.75;8.52;;;5.30;99.90;;;;;;5006569;28;20026;-71
2021/11/17 05:36:06;;;;;;;15.70;8.25;;;5.30;99.90;;;;;;5006514;28;20546;-71
2021/11/17 05:38:53;;;;;;;14.35;7.53;;;5.30;99.90;;;;;;5006480;28;20057;-72
2021/11/17 05:41:18;;;;;;;17.20;8.40;;;5.30;99.90;;;;;;5006967;28;20104;-72
2021/11/17 05:43:44;;;;;;;13.63;8.20;;;5.30;99.90;;;;;;4999283;28;20161;-72
2021/11/17 05:46:18;;;;;;;13.48;8.07;;;5.30;99.90;;;;;;5002272;28;20048;-71
2021/11/17 05:49:10;;;;;;;12.88;7.55;;;5.30;99.90;;;;;;5007207;28;20030;-72
2021/11/17 05:51:42;;;;;;;13.55;7.78;;;5.20;99.90;;;;;;5018334;28;20047;-71
2021/11/17 05:54:23;;;;;;;15.48;8.35;;;5.30;99.90;;;;;;4998944;28;20030;-70
2021/11/17 05:57:06;;;;;;;14.63;8.77;;;5.30;99.90;;;;;;5006976;28;20584;-70
2021/11/17 06:00:10;;;;;;;13.25;8.20;;;5.20;99.90;;;;;;5007855;28;20393;-68
2021/11/17 06:02:53;;;;;;;12.70;8.57;;;5.20;99.90;;;;;;5005090;28;20438;-71
2021/11/17 06:05:18;;;;;;;13.50;8.02;;;5.20;99.90;;;;;;5009756;28;20018;-71
2021/11/17 06:07:44;;;;;;;11.82;6.57;;;5.20;99.90;;;;;;5007246;28;20049;-71
2021/11/17 06:10:16;;;;;;;11.30;6.20;;;5.30;99.90;;;;;;5002648;28;20026;-71
2021/11/17 06:12:42;;;;;;;10.82;5.90;;;5.20;99.90;;;;;;5003324;28;20400;-69
2021/11/17 06:15:12;;;;;;;12.95;6.38;;;5.20;99.90;;;;;;5005806;28;20037;-70
2021/11/17 06:17:40;;;;;;;10.77;6.28;;;5.20;99.90;;;;;;5007205;28;20022;-70
2021/11/17 06:20:10;;;;;;;12.23;7.45;;;5.20;99.90;;;;;;5001783;28;20078;-71
2021/11/17 06:22:36;;;;;;;12.63;7.43;;;5.30;99.90;;;;;;5008451;28;20037;-70
2021/11/17 06:25:08;;;;;;;13.35;7.40;;;5.30;99.90;;;;;;5010534;28;20486;-70
2021/11/17 06:27:37;;;;;;;14.32;7.95;;;5.30;99.90;;;;;;5002800;28;20428;-70
2021/11/17 06:30:05;;;;;;;14.77;7.90;;;5.30;99.90;;;;;;4999193;28;20106;-70
2021/11/17 06:32:31;;;;;;;12.18;7.20;;;5.30;99.90;;;;;;4996487;28;20067;-70
2021/11/17 06:34:59;;;;;;;13.88;7.20;;;5.30;99.90;;;;;;5009959;28;20026;-69
2021/11/17 06:37:28;;;;;;;14.48;8.43;;;5.30;99.90;;;;;;5009306;28;20058;-70
2021/11/17 06:39:58;;;;;;;14.10;8.45;;;5.30;99.90;;;;;;5008381;28;20025;-71
2021/11/17 06:42:38;;;;;;;15.00;8.65;;;5.30;99.90;;;;;;5007295;28;20103;-69
2021/11/17 06:45:22;;;;;;;14.27;8.35;;;5.30;99.90;;;;;;4996281;28;20075;-72
2021/11/17 06:47:48;;;;;;;14.48;9.15;;;5.30;99.90;;;;;;5011376;28;20078;-72
2021/11/17 06:50:15;;;;;;;14.75;8.30;;;5.30;99.90;;;;;;5008693;28;20452;-71
2021/11/17 06:52:41;;;;;;;15.38;8.27;;;5.30;99.90;;;;;;5009481;28;20030;-71
2021/11/17 06:55:08;;;;;;;15.93;8.63;;;5.30;99.90;;;;;;5010299;28;20453;-71
2021/11/17 06:57:34;;;;;;;14.07;7.10;;;5.30;99.90;;;;;;5010017;28;20054;-72
2021/11/17 07:00:00;;;;;;;13.52;7.68;;;5.30;99.90;;;;;;5009413;28;20469;-71
2021/11/17 07:02:26;;;;;;;12.18;7.25;;;5.30;99.90;;;;;;5009949;28;20053;-71
2021/11/17 07:04:51;;;;;;;13.77;7.90;;;5.30;99.90;;;;;;5008908;28;20135;-71
2021/11/17 07:07:17;;;;;;;15.57;8.85;;;5.30;99.90;;;;;;4994755;28;20336;-72
2021/11/17 07:09:44;;;;;;;15.27;8.88;;;5.30;99.90;;;;;;5005130;28;20030;-71
2021/11/17 07:12:12;;;;;;;14.32;8.43;;;5.30;99.90;;;;;;5010414;28;20520;-71
2021/11/17 07:14:39;;;;;;;14.10;8.25;;;5.30;99.90;;;;;;5009689;28;20087;-71
2021/11/17 07:17:05;;;;;;;14.07;7.63;;;5.30;99.90;;;;;;5023719;28;20094;-72
2021/11/17 07:19:31;;;;;;;15.85;8.05;;;5.30;99.90;;;;;;5009619;28;20105;-72
2021/11/17 07:21:59;;;;;;;18.00;9.15;;;5.30;99.90;;;;;;5009565;28;20030;-71
2021/11/17 07:24:26;;;;;;;16.10;8.15;;;5.40;99.90;;;;;;4994101;28;20026;-72
2021/11/17 07:26:53;;;;;;;12.77;7.70;;;5.40;99.90;;;;;;5011443;28;20485;-68
2021/11/17 07:29:19;;;;;;;15.00;8.52;;;5.40;99.90;;;;;;5009653;28;20025;-69
2021/11/17 07:31:45;;;;;;;16.88;8.15;;;5.40;99.90;;;;;;4998897;28;20033;-72
2021/11/17 07:34:11;;;;;;;12.82;7.65;;;5.30;99.90;;;;;;5007702;28;20398;-69
2021/11/17 07:36:38;;;;;;;14.82;7.93;;;5.40;99.90;;;;;;4998274;28;20026;-73
2021/11/17 07:39:04;;;;;;;15.88;8.13;;;5.30;99.90;;;;;;4991760;28;20026;-70
2021/11/17 07:41:30;;;;;;;13.93;7.78;;;5.40;99.90;;;;;;5006049;28;20085;-70
2021/11/17 07:43:56;;;;;;;16.67;8.07;;;5.40;99.90;;;;;;5001157;28;20057;-70
2021/11/17 07:46:21;;;;;;;14.73;7.78;;;5.40;99.90;;;;;;5009093;28;20026;-70
2021/11/17 07:48:47;;;;;;;13.77;7.65;;;5.40;99.90;;;;;;5007495;28;20428;-71
2021/11/17 07:51:15;;;;;;;12.85;7.30;;;5.40;99.90;;;;;;5007919;28;20040;-71
2021/11/17 07:53:41;;;;;;;14.10;7.13;;;5.40;99.90;;;;;;5008326;28;20512;-71
2021/11/17 07:56:07;;;;;;;15.73;7.68;;;5.30;99.90;;;;;;5008000;28;20534;-71
2021/11/17 07:58:38;;;;;;;11.02;5.70;;;5.40;99.90;;;;;;5009829;28;20030;-70
2021/11/17 08:01:05;;;;;;;10.95;6.00;;;5.40;99.90;;;;;;5009169;28;20033;-72
2021/11/17 08:03:34;;;;;;;13.10;6.72;;;5.30;99.90;;;;;;5008845;28;20034;-71
2021/11/17 08:06:00;;;;;;;12.82;6.78;;;5.40;99.90;;;;;;5008028;28;20139;-71
2021/11/17 08:08:28;;;;;;;11.32;5.95;;;5.40;99.90;;;;;;5008712;28;20054;-72
2021/11/17 08:10:54;;;;;;;9.75;5.35;;;5.40;99.90;;;;;;5005596;28;20026;-69
2021/11/17 08:13:20;;;;;;;8.38;4.75;;;5.40;99.90;;;;;;4998808;28;20025;-70
2021/11/17 08:15:46;;;;;;;9.82;5.07;;;5.30;99.90;;;;;;5046265;28;20047;-70
2021/11/17 08:18:11;;;;;;;7.47;4.80;;;5.30;99.90;;;;;;5038416;28;20026;-70
2021/11/17 08:20:38;;;;;;;8.23;4.80;;;5.40;99.90;;;;;;5008004;28;20386;-70
2021/11/17 08:23:04;;;;;;;10.35;5.22;;;5.30;99.90;;;;;;5008486;28;20104;-70
2021/11/17 08:25:33;;;;;;;11.30;5.63;;;5.30;99.90;;;;;;5008731;28;20152;-70
2021/11/17 08:27:59;;;;;;;7.97;5.07;;;5.30;99.90;;;;;;5007967;28;20048;-71
2021/11/17 08:30:28;;;;;;;9.57;5.20;;;5.40;99.90;;;;;;5008911;28;20435;-70
2021/11/17 08:32:54;;;;;;;9.50;4.90;;;5.40;99.90;;;;;;5007011;28;20589;-70
2021/11/17 08:35:22;;;;;;;9.23;5.05;;;5.40;99.90;;;;;;5008062;28;20105;-71
2021/11/17 08:37:50;;;;;;;10.18;5.95;;;5.40;99.90;;;;;;5008630;28;20038;-70
2021/11/17 08:40:23;;;;;;;9.45;5.97;;;5.40;99.90;;;;;;4999189;28;20121;-70
2021/11/17 08:42:48;;;;;;;13.00;7.32;;;5.40;99.90;;;;;;5001190;28;20026;-70
2021/11/17 08:45:16;;;;;;;17.65;10.35;;;5.40;99.90;;;;;;5009119;28;20090;-70
2021/11/17 08:47:43;;;;;;;12.73;6.60;;;5.40;99.90;;;;;;5007570;28;20034;-70
2021/11/17 08:50:12;;;;;;;12.07;6.43;;;5.50;99.90;;;;;;5009181;28;20470;-70
2021/11/17 08:52:37;;;;;;;10.32;6.15;;;5.50;99.90;;;;;;5007751;28;20034;-71
2021/11/17 08:55:04;;;;;;;13.85;6.63;;;5.40;99.90;;;;;;5008826;28;20492;-71
2021/11/17 08:57:31;;;;;;;13.50;6.63;;;5.40;99.90;;;;;;5007355;28;20026;-71
2021/11/17 09:00:00;;;;;;;13.88;7.63;;;5.40;99.90;;;;;;5008876;28;20069;-71
2021/11/17 09:02:25;;;;;;;11.00;6.05;;;5.40;99.90;;;;;;5008775;28;20018;-71
2021/11/17 09:04:51;;;;;;;12.95;6.93;;;5.40;99.90;;;;;;5008009;28;20289;-69
2021/11/17 09:07:17;;;;;;;12.68;6.85;;;5.40;99.90;;;;;;5008561;28;20429;-71
2021/11/17 09:09:43;;;;;;;11.82;6.43;;;5.40;99.90;;;;;;5003667;28;20033;-71
2021/11/17 09:12:10;;;;;;;13.27;7.45;;;5.40;99.90;;;;;;4988633;28;20022;-71
2021/11/17 09:14:36;;;;;;;26.88;15.90;;;5.40;99.90;;;;;;4988073;28;20041;-71
2021/11/17 09:17:03;;;;;;;18.05;8.90;;;5.50;99.90;;;;;;4999666;28;20029;-71
2021/11/17 09:19:29;;;;;;;22.20;10.73;;;5.40;99.90;;;;;;5006953;28;20056;-71
2021/11/17 09:21:54;;;;;;;28.25;15.30;;;5.50;99.90;;;;;;5008033;28;20046;-71
2021/11/17 09:24:21;;;;;;;21.75;13.32;;;5.50;99.90;;;;;;5007431;28;20496;-70
2021/11/17 09:26:50;;;;;;;15.02;8.90;;;5.50;99.90;;;;;;5008014;28;20097;-70
2021/11/17 09:29:16;;;;;;;14.32;7.00;;;5.50;99.90;;;;;;5008112;28;20030;-70
2021/11/17 09:31:43;;;;;;;17.05;9.25;;;5.50;99.90;;;;;;5006967;28;20529;-71
2021/11/17 09:34:09;;;;;;;14.00;6.72;;;5.40;99.90;;;;;;5007403;28;20030;-71
2021/11/17 09:36:37;;;;;;;9.63;5.72;;;5.40;99.90;;;;;;5005888;28;20026;-71
2021/11/17 09:39:08;;;;;;;7.90;3.60;;;5.40;99.90;;;;;;5002597;28;20435;-71
2021/11/17 09:41:41;;;;;;;5.55;3.17;;;5.40;99.90;;;;;;4988434;28;20101;-71
2021/11/17 09:46:37;;;;;;;4.25;2.80;;;5.30;99.90;;;;;;4985329;28;20055;-71
2021/11/17 09:49:15;;;;;;;5.82;2.92;;;5.30;99.90;;;;;;4969266;28;20419;-73
2021/11/17 09:51:51;;;;;;;5.72;3.33;;;5.30;99.90;;;;;;4982345;28;20034;-74
2021/11/17 09:54:48;;;;;;;6.43;3.03;;;5.30;99.90;;;;;;4990985;28;20076;-74
2021/11/17 09:57:22;;;;;;;7.20;3.30;;;5.20;99.90;;;;;;4984842;28;20115;-74
2021/11/17 09:59:53;;;;;;;5.95;3.67;;;5.20;99.90;;;;;;4987626;28;20034;-74
2021/11/17 10:02:37;;;;;;;5.55;2.92;;;5.20;99.90;;;;;;4981136;28;20114;-74
2021/11/17 10:05:18;;;;;;;4.75;3.20;;;5.20;99.90;;;;;;4973093;28;20445;-72
2021/11/17 10:13:13;;;;;;;4.18;3.00;;;5.20;99.90;;;;;;5004244;28;20058;-73
2021/11/17 10:15:41;;;;;;;5.20;3.38;;;5.20;99.90;;;;;;4997287;28;20066;-74
2021/11/17 10:18:30;;;;;;;5.15;3.65;;;5.20;99.90;;;;;;4983821;28;20390;-75
2021/11/17 10:21:01;;;;;;;7.18;3.35;;;5.10;99.90;;;;;;4991502;28;20030;-72
2021/11/17 10:23:34;;;;;;;7.63;3.72;;;5.20;99.90;;;;;;4990789;28;20038;-73
2021/11/17 10:26:02;;;;;;;7.07;4.00;;;5.20;99.90;;;;;;4991334;28;20497;-72
2021/11/17 10:28:33;;;;;;;6.88;3.70;;;5.10;99.90;;;;;;4990893;28;20027;-72
2021/11/17 10:31:09;;;;;;;5.43;3.50;;;5.10;99.90;;;;;;4991097;28;20118;-72
2021/11/17 10:33:46;;;;;;;7.40;3.80;;;5.20;99.90;;;;;;4990333;28;20031;-71
2021/11/17 10:36:27;;;;;;;5.32;3.70;;;5.20;99.90;;;;;;4990979;28;20576;-73
2021/11/17 10:39:42;;;;;;;7.30;4.45;;;5.20;99.90;;;;;;4984719;28;20022;-72
2021/11/17 10:42:19;;;;;;;6.65;4.65;;;5.20;99.90;;;;;;4972254;28;20027;-73
2021/11/17 10:44:48;;;;;;;6.63;3.50;;;5.20;99.90;;;;;;4974438;28;20495;-73
2021/11/17 10:47:24;;;;;;;7.55;5.00;;;5.20;99.90;;;;;;4989596;28;20086;-73
2021/11/17 10:49:54;;;;;;;5.03;3.30;;;5.20;99.90;;;;;;4988959;28;20049;-72
2021/11/17 10:52:30;;;;;;;7.10;4.50;;;5.20;99.90;;;;;;4990164;28;20109;-73
2021/11/17 10:54:58;;;;;;;5.35;3.78;;;5.30;99.90;;;;;;4980545;28;20041;-73
2021/11/17 10:57:30;;;;;;;3.60;3.22;;;5.30;99.90;;;;;;4986785;28;20038;-73
2021/11/17 10:59:57;;;;;;;;;;;5.40;99.90;;;;;;4990042;28;20548;-72
2021/11/17 11:02:26;;;;;;;4.90;3.80;;;5.40;99.90;;;;;;4983547;28;19933;-72
2021/11/17 11:05:21;;;;;;;4.55;2.63;;;5.40;99.90;;;;;;4983445;28;20027;-73
2021/11/17 11:08:07;;;;;;;5.70;2.70;;;5.40;99.90;;;;;;4988157;28;20026;-74
2021/11/17 11:10:49;;;;;;;2.75;2.20;;;5.40;99.90;;;;;;4979229;28;20121;-74
2021/11/17 11:13:22;;;;;;;3.67;3.00;;;5.40;99.90;;;;;;5061517;28;20028;-75
2021/11/17 11:16:01;;;;;;;6.32;3.38;;;5.40;99.90;;;;;;4987316;28;20026;-74
2021/11/17 11:18:36;;;;;;;4.25;3.35;;;5.40;99.90;;;;;;4987387;28;20030;-75
2021/11/17 11:21:02;;;;;;;5.63;3.20;;;5.40;99.90;;;;;;5002783;28;20367;-74
2021/11/17 11:23:30;;;;;;;4.78;3.20;;;5.40;99.90;;;;;;4986662;28;20026;-74
2021/11/17 11:26:20;;;;;;;5.60;3.05;;;5.30;99.90;;;;;;5002059;28;20090;-74
2021/11/17 11:28:45;;;;;;;2.78;2.50;;;5.30;99.90;;;;;;4985795;28;20113;-74
2021/11/17 11:31:11;;;;;;;6.35;3.63;;;5.30;99.90;;;;;;4992049;28;20113;-72
2021/11/17 11:33:50;;;;;;;4.68;3.25;;;5.30;99.90;;;;;;4984441;28;20034;-75
2021/11/17 11:36:16;;;;;;;5.75;3.75;;;5.30;99.90;;;;;;4994590;28;20038;-74
2021/11/17 11:39:09;;;;;;;4.35;3.63;;;5.30;99.90;;;;;;4989334;28;20034;-73
2021/11/17 11:42:11;;;;;;;5.45;4.00;;;5.20;99.90;;;;;;5006432;28;20038;-74
2021/11/17 11:44:47;;;;;;;6.18;4.15;;;5.20;99.90;;;;;;4996225;28;20095;-74
2021/11/17 11:47:12;;;;;;;6.00;4.38;;;5.20;99.90;;;;;;4982188;28;20033;-74
2021/11/17 11:49:54;;;;;;;6.47;4.72;;;5.20;99.90;;;;;;4996017;28;20363;-73
2021/11/17 11:52:23;;;;;;;4.78;3.67;;;5.20;99.90;;;;;;4989826;28;20114;-74
2021/11/17 11:54:54;;;;;;;5.93;4.00;;;5.20;99.90;;;;;;4988960;28;20049;-74
2021/11/17 11:57:46;;;;;;;4.93;4.03;;;5.10;99.90;;;;;;4989935;28;20054;-74
2021/11/17 12:00:21;;;;;;;4.32;3.38;;;5.10;99.90;;;;;;4990348;28;20684;-75
2021/11/17 12:03:08;;;;;;;3.80;2.72;;;5.00;99.90;;;;;;4983680;28;20510;-74
2021/11/17 12:05:37;;;;;;;6.03;3.78;;;5.00;99.90;;;;;;4991120;28;20030;-75
2021/11/17 12:08:21;;;;;;;3.83;3.05;;;5.00;99.90;;;;;;5089117;28;20031;-75
2021/11/17 12:11:02;;;;;;;4.35;3.00;;;5.00;99.90;;;;;;4997883;28;20034;-72
2021/11/17 12:13:31;;;;;;;5.70;2.83;;;5.00;99.90;;;;;;4988827;28;20027;-72
2021/11/17 12:16:23;;;;;;;5.97;3.90;;;5.00;99.90;;;;;;4993064;28;20072;-70
2021/11/17 12:18:53;;;;;;;5.20;4.25;;;5.00;99.90;;;;;;5003581;28;20038;-71
2021/11/17 12:21:29;;;;;;;4.68;4.18;;;5.00;99.90;;;;;;5031064;28;20121;-74
2021/11/17 12:24:20;;;;;;;4.97;3.80;;;5.00;99.90;;;;;;4990021;28;20053;-76
2021/11/17 12:26:56;;;;;;;5.20;3.42;;;5.00;99.90;;;;;;5009706;28;20066;-76
2021/11/17 12:29:25;;;;;;;6.00;4.68;;;5.00;99.90;;;;;;4989280;28;20027;-74
2021/11/17 12:31:53;;;;;;;4.88;3.92;;;5.00;99.90;;;;;;4989514;28;20066;-73
2021/11/17 12:34:24;;;;;;;7.97;6.18;;;5.00;99.90;;;;;;5034286;28;20390;-74
2021/11/17 12:37:00;;;;;;;9.00;5.63;;;5.00;99.90;;;;;;4986704;28;20027;-72
2021/11/17 12:39:55;;;;;;;5.20;4.10;;;5.00;99.90;;;;;;5017532;28;20026;-73
2021/11/17 12:42:34;;;;;;;4.95;3.60;;;5.00;99.90;;;;;;4986161;28;20056;-74
2021/11/17 12:45:30;;;;;;;4.25;3.50;;;5.00;99.90;;;;;;4988914;28;20522;-73
2021/11/17 12:47:55;;;;;;;4.68;3.33;;;5.00;99.90;;;;;;4979644;28;20027;-72
2021/11/17 12:51:02;;;;;;;3.47;2.88;;;5.00;99.90;;;;;;4987734;28;20030;-73
2021/11/17 12:53:33;;;;;;;4.50;3.80;;;5.00;99.90;;;;;;4946727;29;20038;-73
2021/11/17 12:56:29;;;;;;;5.18;3.60;;;5.10;99.90;;;;;;4935847;29;20035;-74
2021/11/17 12:59:19;;;;;;;5.68;3.80;;;5.10;99.90;;;;;;4973624;28;20119;-73
2021/11/17 13:01:49;;;;;;;4.53;3.15;;;5.10;99.90;;;;;;4989255;28;20034;-74
2021/11/17 13:04:22;;;;;;;6.03;4.30;;;5.10;99.90;;;;;;5033975;28;20386;-73
2021/11/17 13:07:02;;;;;;;4.15;3.67;;;5.10;99.90;;;;;;4988571;28;20125;-73
2021/11/17 13:09:33;;;;;;;5.13;4.25;;;5.10;99.90;;;;;;4989944;28;20398;-71
2021/11/17 13:12:09;;;;;;;7.03;4.90;;;5.10;99.90;;;;;;4988745;28;20069;-72
2021/11/17 13:14:49;;;;;;;12.65;8.02;;;5.20;99.90;;;;;;4986917;28;20030;-73
2021/11/17 13:17:22;;;;;;;6.32;4.75;;;5.10;99.90;;;;;;4991085;28;20049;-73
2021/11/17 13:19:52;;;;;;;5.65;4.43;;;5.20;99.90;;;;;;4988460;28;20041;-73
2021/11/17 13:22:36;;;;;;;6.65;4.05;;;5.20;99.90;;;;;;4989068;28;20034;-74
2021/11/17 13:25:21;;;;;;;4.93;3.72;;;5.20;99.90;;;;;;4987851;28;20025;-73
2021/11/17 13:27:54;;;;;;;4.75;3.13;;;5.20;99.90;;;;;;4990032;28;20092;-73
2021/11/17 13:30:38;;;;;;;;;;;5.20;99.90;;;;;;4988828;28;20114;-73
2021/11/17 13:33:27;;;;;;;4.72;3.10;;;5.20;99.90;;;;;;4983318;28;20316;-73
2021/11/17 13:36:12;;;;;;;4.47;3.38;;;5.20;99.90;;;;;;4987313;28;20030;-74
2021/11/17 13:38:52;;;;;;;7.10;4.22;;;5.20;99.90;;;;;;5014038;28;20033;-73
2021/11/17 13:41:17;;;;;;;7.10;4.45;;;5.20;99.90;;;;;;4968984;28;20076;-73
2021/11/17 13:43:43;;;;;;;5.15;4.10;;;5.20;99.90;;;;;;4981449;28;20034;-72
2021/11/17 13:46:13;;;;;;;5.47;3.80;;;5.20;99.90;;;;;;5025690;28;20229;-73
2021/11/17 13:48:41;;;;;;;6.32;4.13;;;5.20;99.90;;;;;;4994753;28;20050;-72
2021/11/17 13:51:09;;;;;;;5.03;3.42;;;5.20;99.90;;;;;;5090503;28;20024;-72
2021/11/17 13:53:35;;;;;;;5.03;3.80;;;5.10;99.90;;;;;;4988078;28;20045;-73
2021/11/17 13:56:05;;;;;;;4.20;3.65;;;5.20;99.90;;;;;;4983783;28;20421;-74
2021/11/17 13:58:32;;;;;;;5.47;3.63;;;5.10;99.90;;;;;;4988302;28;20103;-74
2021/11/17 14:00:58;;;;;;;6.35;4.00;;;5.20;99.90;;;;;;4988008;28;20042;-72
2021/11/17 14:03:23;;;;;;;7.00;4.40;;;5.20;99.90;;;;;;4988698;28;20030;-72
2021/11/17 14:05:50;;;;;;;7.55;5.35;;;5.20;99.90;;;;;;4987846;28;20035;-74
2021/11/17 14:08:17;;;;;;;4.88;3.78;;;5.20;99.90;;;;;;5062940;28;20035;-73
2021/11/17 14:10:43;;;;;;;5.03;4.13;;;5.20;99.90;;;;;;5049509;28;20472;-74
2021/11/17 14:13:09;;;;;;;6.07;3.40;;;5.20;99.90;;;;;;4985117;28;20186;-72
2021/11/17 14:15:36;;;;;;;4.95;3.97;;;5.20;99.90;;;;;;4982861;28;20125;-73
2021/11/17 14:18:03;;;;;;;8.77;5.03;;;5.20;99.90;;;;;;4967930;28;20088;-72
2021/11/17 14:20:29;;;;;;;10.30;4.20;;;5.20;99.90;;;;;;4974682;28;20037;-73
2021/11/17 14:22:55;;;;;;;3.70;3.20;;;5.20;99.90;;;;;;4994192;28;20067;-73
2021/11/17 14:25:23;;;;;;;6.38;3.80;;;5.20;99.90;;;;;;4982786;28;20118;-72
2021/11/17 14:27:56;;;;;;;7.60;3.80;;;5.20;99.90;;;;;;4978321;28;20034;-73
2021/11/17 14:30:30;;;;;;;5.72;4.10;;;5.20;99.90;;;;;;4971578;28;20026;-72
2021/11/17 14:32:56;;;;;;;5.47;3.80;;;5.20;99.90;;;;;;5021717;28;20057;-73
2021/11/17 14:35:25;;;;;;;13.18;7.68;;;5.20;99.90;;;;;;4984777;28;20026;-73
2021/11/17 14:37:54;;;;;;;15.65;7.45;;;5.20;99.90;;;;;;5045190;28;20036;-72
2021/11/17 14:40:20;;;;;;;6.75;4.68;;;5.30;99.90;;;;;;4997943;28;20040;-73
2021/11/17 14:42:46;;;;;;;6.50;4.20;;;5.30;99.90;;;;;;5030102;28;20028;-74
2021/11/17 14:45:16;;;;;;;8.55;3.80;;;5.30;99.90;;;;;;5009843;28;20129;-73
2021/11/17 14:47:43;;;;;;;5.07;3.50;;;5.30;99.90;;;;;;4996958;28;20041;-74
2021/11/17 14:50:10;;;;;;;5.68;4.15;;;5.30;99.90;;;;;;4989839;28;20030;-75
2021/11/17 14:52:38;;;;;;;8.00;3.80;;;5.30;99.90;;;;;;4986658;28;20441;-73
2021/11/17 14:55:05;;;;;;;7.90;4.35;;;5.30;99.90;;;;;;4987359;28;20090;-74
2021/11/17 14:57:31;;;;;;;5.13;4.00;;;5.30;99.90;;;;;;4987134;28;20091;-71
2021/11/17 14:59:58;;;;;;;8.15;4.10;;;5.30;99.90;;;;;;4986288;28;20125;-73
2021/11/17 15:02:29;;;;;;;5.22;3.38;;;5.20;99.90;;;;;;5017111;28;20038;-74
2021/11/17 15:04:54;;;;;;;5.65;3.70;;;5.20;99.90;;;;;;4994855;28;20029;-74
2021/11/17 15:07:20;;;;;;;6.30;3.88;;;5.20;99.90;;;;;;4989640;28;20358;-77
2021/11/17 15:09:46;;;;;;;6.30;4.40;;;5.20;99.90;;;;;;4987376;28;20033;-72
2021/11/17 15:12:32;;;;;;;6.43;4.18;;;5.20;99.90;;;;;;4979605;28;20098;-71
2021/11/17 15:15:00;;;;;;;4.97;3.45;;;5.20;99.90;;;;;;4997058;28;20035;-75
2021/11/17 15:17:26;;;;;;;7.22;3.67;;;5.20;99.90;;;;;;4984388;28;20034;-74
2021/11/17 15:19:52;;;;;;;7.55;3.83;;;5.20;99.90;;;;;;4986051;28;20034;-73
2021/11/17 15:22:19;;;;;;;6.03;3.97;;;5.20;99.90;;;;;;4987077;28;20030;-71
2021/11/17 15:24:45;;;;;;;6.38;3.65;;;5.20;99.90;;;;;;4988651;28;20026;-74
2021/11/17 15:27:36;;;;;;;6.95;3.75;;;5.20;99.90;;;;;;4981263;28;20064;-75
2021/11/17 15:30:06;;;;;;;4.82;3.58;;;5.20;99.90;;;;;;4987178;28;20114;-73
2021/11/17 15:32:32;;;;;;;5.53;3.60;;;5.20;99.90;;;;;;4999602;28;20047;-71
2021/11/17 15:34:57;;;;;;;4.63;3.72;;;5.20;99.90;;;;;;4985180;28;20505;-75
2021/11/17 15:37:24;;;;;;;10.05;6.65;;;5.20;99.90;;;;;;4988736;28;20029;-75
2021/11/17 15:39:49;;;;;;;21.33;13.88;;;5.20;99.90;;;;;;4985843;28;20109;-74
2021/11/17 15:42:15;;;;;;;15.93;9.52;;;5.20;99.90;;;;;;4992391;28;20114;-75
2021/11/17 15:44:41;;;;;;;6.72;4.10;;;5.20;99.90;;;;;;5088525;28;20039;-74
2021/11/17 15:47:08;;;;;;;7.80;4.30;;;5.20;99.90;;;;;;5057123;28;20116;-72
2021/11/17 15:49:35;;;;;;;7.60;4.80;;;5.20;99.90;;;;;;4965279;28;20099;-74
2021/11/17 15:52:01;;;;;;;8.43;4.60;;;5.20;99.90;;;;;;4974036;28;20082;-74
2021/11/17 15:54:27;;;;;;;6.72;4.28;;;5.30;99.90;;;;;;4992287;28;20042;-73
2021/11/17 15:56:53;;;;;;;7.95;5.63;;;5.30;99.90;;;;;;4979451;28;20095;-74
2021/11/17 15:59:19;;;;;;;6.90;5.25;;;5.30;99.90;;;;;;4977432;28;20493;-73
2021/11/17 16:01:47;;;;;;;6.03;3.70;;;5.30;99.90;;;;;;4986034;28;20053;-73